createdAt,value
2023-05-08T00:01:13.167Z,100544.91
2023-05-08T00:06:14.800Z,100543.09
2023-05-08T00:11:16.460Z,100548.06
2023-05-08T00:16:18.173Z,100546.28
2023-05-08T00:21:19.917Z,100543.03
2023-05-08T00:26:21.837Z,100543.03
2023-05-08T00:31:24.113Z,100537.88
2023-05-08T00:36:26.082Z,100542.72
2023-05-08T00:41:27.875Z,100537.69
2023-05-08T00:46:30.385Z,100537.44
2023-05-08T00:51:32.711Z,100548.28
2023-05-08T00:56:37.410Z,100539.47
2023-05-08T01:01:40.804Z,100554.53
2023-05-08T01:06:42.437Z,100550.16
2023-05-08T01:12:09.974Z,100549.75
2023-05-08T01:17:26.829Z,100553.06
2023-05-08T01:22:49.797Z,100550.38
2023-05-08T01:28:13.686Z,100557.03
2023-05-08T01:33:30.545Z,100552.69
2023-05-08T01:38:51.107Z,100551.72
2023-05-08T01:44:03.922Z,100561.00
2023-05-08T01:49:09.577Z,100575.09
2023-05-08T01:54:16.585Z,100567.44
2023-05-08T01:59:21.967Z,100568.00
2023-05-08T02:04:25.092Z,100571.53
2023-05-08T02:09:29.414Z,100578.09
2023-05-08T02:14:32.844Z,100572.88
2023-05-08T02:19:36.352Z,100575.25
2023-05-08T02:24:38.827Z,100577.66
2023-05-08T02:29:40.645Z,100575.13
2023-05-08T02:34:54.863Z,100586.75
2023-05-08T02:40:04.224Z,100580.56
2023-05-08T02:45:07.483Z,100581.56
2023-05-08T02:50:18.421Z,100590.75
2023-05-08T02:55:36.319Z,100583.16
2023-05-08T03:00:45.349Z,100588.91
2023-05-08T03:06:12.033Z,100592.09
2023-05-08T03:11:21.728Z,100594.41
2023-05-08T03:16:25.992Z,100595.09
2023-05-08T03:21:30.473Z,100598.50
2023-05-08T03:26:32.364Z,100602.75
2023-05-08T03:31:35.380Z,100599.34
2023-05-08T03:36:38.355Z,100602.66
2023-05-08T03:41:40.429Z,100614.97
2023-05-08T03:46:42.861Z,100619.00
2023-05-08T03:51:44.737Z,100618.56
2023-05-08T03:56:47.896Z,100613.25
2023-05-08T04:02:10.148Z,100610.13
2023-05-08T04:07:30.473Z,100606.66
2023-05-08T04:12:45.234Z,100616.28
2023-05-08T04:17:55.858Z,100609.38
2023-05-08T04:22:58.886Z,100611.97
2023-05-08T04:28:02.577Z,100620.25
2023-05-08T04:33:07.765Z,100631.03
2023-05-08T04:38:10.299Z,100640.22
2023-05-08T04:43:12.424Z,100639.06
2023-05-08T04:48:14.359Z,100639.03
2023-05-08T04:53:16.240Z,100642.44
2023-05-08T04:58:17.985Z,100633.31
2023-05-08T05:03:19.962Z,100632.84
2023-05-08T05:08:21.707Z,100627.19
2023-05-08T05:13:23.728Z,100639.97
2023-05-08T05:18:25.667Z,100631.41
2023-05-08T05:23:28.803Z,100653.63
2023-05-08T05:28:30.719Z,100642.69
2023-05-08T05:33:32.474Z,100646.94
2023-05-08T05:38:34.217Z,100644.25
2023-05-08T05:43:36.051Z,100652.16
2023-05-08T05:48:37.829Z,100662.00
2023-05-08T05:53:40.487Z,100660.34
2023-05-08T05:58:44.927Z,100665.22
2023-05-08T06:03:47.513Z,100665.16
2023-05-08T06:08:49.550Z,100659.38
2023-05-08T06:13:51.148Z,100650.22
2023-05-08T06:18:53.559Z,100670.53
2023-05-08T06:23:55.479Z,100669.63
2023-05-08T06:28:57.065Z,100680.78
2023-05-08T06:33:58.677Z,100683.91
2023-05-08T06:39:00.268Z,100681.47
2023-05-08T06:44:01.894Z,100689.53
2023-05-08T06:49:03.644Z,100690.69
2023-05-08T06:54:08.626Z,100686.38
2023-05-08T06:59:10.769Z,100696.22
2023-05-08T07:04:12.719Z,100686.84
2023-05-08T07:09:15.157Z,100690.94
2023-05-08T07:14:16.877Z,100677.44
2023-05-08T07:19:20.509Z,100678.72
2023-05-08T07:24:24.696Z,100692.38
2023-05-08T07:29:27.045Z,100687.56
2023-05-08T07:34:28.847Z,100679.66
2023-05-08T07:39:30.542Z,100694.28
2023-05-08T07:44:43.524Z,100700.22
2023-05-08T07:49:53.346Z,100701.16
2023-05-08T07:54:55.145Z,100695.16
2023-05-08T08:00:01.929Z,100695.59
2023-05-08T08:05:15.219Z,100691.78
2023-05-08T08:10:17.486Z,100699.31
2023-05-08T08:15:19.358Z,100690.78
2023-05-08T08:20:21.262Z,100693.56
2023-05-08T08:25:22.967Z,100685.97
2023-05-08T08:30:24.723Z,100680.69
2023-05-08T08:35:29.367Z,100665.88
2023-05-08T08:40:31.111Z,100684.63
2023-05-08T08:45:32.826Z,100682.84
2023-05-08T08:50:36.388Z,100691.03
2023-05-08T08:55:45.587Z,100674.94
2023-05-08T09:00:48.351Z,100684.28
2023-05-08T09:05:50.526Z,100678.19
2023-05-08T09:10:54.867Z,100668.84
2023-05-08T09:15:58.361Z,100668.78
2023-05-08T09:21:01.815Z,100665.38
2023-05-08T09:26:03.481Z,100669.91
2023-05-08T09:31:06.215Z,100662.06
2023-05-08T09:36:27.878Z,100652.78
2023-05-08T09:41:29.794Z,100659.63
2023-05-08T09:46:34.026Z,100653.00
2023-05-08T09:51:35.705Z,100662.97
2023-05-08T09:56:39.594Z,100670.13
2023-05-08T10:01:42.057Z,100653.47
2023-05-08T10:06:43.921Z,100662.91
2023-05-08T10:11:52.632Z,100637.13
2023-05-08T10:16:54.874Z,100638.47
2023-05-08T10:22:00.019Z,100636.56
2023-05-08T10:27:13.917Z,100624.09
2023-05-08T10:32:19.090Z,100625.59
2023-05-08T10:37:21.206Z,100618.00
2023-05-08T10:42:23.095Z,100593.94
2023-05-08T10:47:24.647Z,100610.34
2023-05-08T10:52:29.523Z,100595.41
2023-05-08T10:57:31.800Z,100588.66
2023-05-08T11:02:37.031Z,100578.50
2023-05-08T11:07:58.780Z,100590.22
2023-05-08T11:13:01.579Z,100576.03
2023-05-08T11:18:07.148Z,100562.66
2023-05-08T11:23:22.756Z,100557.25
2023-05-08T11:28:24.625Z,100549.88
2023-05-08T11:33:31.432Z,100569.84
2023-05-08T11:38:38.118Z,100561.69
2023-05-08T11:44:14.899Z,100552.81
2023-05-08T11:49:19.655Z,100549.91
2023-05-08T11:54:26.365Z,100546.34
2023-05-08T11:59:28.039Z,100548.03
2023-05-08T12:04:29.762Z,100543.25
2023-05-08T12:09:31.608Z,100539.69
2023-05-08T12:14:34.800Z,100540.22
2023-05-08T12:19:36.518Z,100544.53
2023-05-08T12:24:39.324Z,100548.16
2023-05-08T12:29:45.208Z,100546.09
2023-05-08T12:34:46.901Z,100543.84
2023-05-08T12:39:48.510Z,100539.66
2023-05-08T12:44:51.724Z,100521.13
2023-05-08T12:49:58.122Z,100514.28
2023-05-08T12:54:59.723Z,100520.69
2023-05-08T13:00:05.216Z,100511.00
2023-05-08T13:05:07.065Z,100507.03
2023-05-08T13:10:09.332Z,100494.28
2023-05-08T13:15:11.851Z,100495.31
2023-05-08T13:20:13.737Z,100496.06
2023-05-08T13:25:15.963Z,100475.88
2023-05-08T13:30:18.050Z,100491.69
2023-05-08T13:35:20.770Z,100485.72
2023-05-08T13:40:22.558Z,100476.38
2023-05-08T13:45:24.439Z,100477.97
2023-05-08T13:50:26.179Z,100464.91
2023-05-08T13:55:27.770Z,100464.22
2023-05-08T14:00:30.209Z,100470.97
2023-05-08T14:05:31.832Z,100471.78
2023-05-08T14:10:33.686Z,100458.38
2023-05-08T14:15:37.822Z,100472.94
2023-05-08T14:20:39.588Z,100460.06
2023-05-08T14:25:41.180Z,100458.97
2023-05-08T14:30:42.986Z,100457.28
2023-05-08T14:35:45.923Z,100475.03
2023-05-08T14:40:50.869Z,100461.63
2023-05-08T14:45:52.478Z,100459.41
2023-05-08T14:50:54.392Z,100453.94
2023-05-08T14:55:56.418Z,100463.44
2023-05-08T15:00:58.287Z,100457.00
2023-05-08T15:05:59.917Z,100460.56
2023-05-08T15:11:01.724Z,100458.69
2023-05-08T15:16:03.429Z,100454.63
2023-05-08T15:21:05.584Z,100460.03
2023-05-08T15:26:08.429Z,100458.81
2023-05-08T15:31:10.048Z,100452.75
2023-05-08T15:36:13.476Z,100445.84
2023-05-08T15:41:15.680Z,100440.50
2023-05-08T15:46:17.685Z,100445.25
2023-05-08T15:51:19.476Z,100441.13
2023-05-08T15:56:24.455Z,100443.44
2023-05-08T16:01:26.191Z,100433.91
2023-05-08T16:06:28.001Z,100426.84
2023-05-08T16:11:32.801Z,100432.91
2023-05-08T16:16:34.452Z,100429.53
2023-05-08T16:21:36.122Z,100430.22
2023-05-08T16:26:37.728Z,100442.25
2023-05-08T16:31:39.437Z,100443.22
2023-05-08T16:36:41.280Z,100431.88
2023-05-08T16:41:42.909Z,100440.72
2023-05-08T16:46:44.564Z,100432.41
2023-05-08T16:51:46.246Z,100444.25
2023-05-08T16:56:48.207Z,100443.47
2023-05-08T17:01:49.824Z,100442.16
2023-05-08T17:06:51.628Z,100441.25
2023-05-08T17:11:53.734Z,100447.03
2023-05-08T17:16:55.484Z,100460.03
2023-05-08T17:21:59.470Z,100461.47
2023-05-08T17:27:01.533Z,100463.72
2023-05-08T17:32:03.263Z,100474.03
2023-05-08T17:37:04.926Z,100478.53
2023-05-08T17:42:06.545Z,100492.66
2023-05-08T17:47:09.210Z,100508.88
2023-05-08T17:52:11.092Z,100506.47
2023-05-08T17:57:12.683Z,100518.34
2023-05-08T18:02:14.282Z,100526.78
2023-05-08T18:07:16.001Z,100538.69
2023-05-08T18:12:17.896Z,100531.91
2023-05-08T18:17:20.586Z,100547.06
2023-05-08T18:22:22.496Z,100548.72
2023-05-08T18:27:24.492Z,100563.78
2023-05-08T18:32:26.130Z,100574.75
2023-05-08T18:37:28.733Z,100573.00
2023-05-08T18:42:30.482Z,100589.13
2023-05-08T18:47:32.789Z,100583.16
2023-05-08T18:52:34.404Z,100586.44
2023-05-08T18:57:36.089Z,100591.44
2023-05-08T19:02:37.745Z,100597.16
2023-05-08T19:07:39.715Z,100598.84
2023-05-08T19:12:41.487Z,100610.69
2023-05-08T19:17:43.360Z,100627.59
2023-05-08T19:22:46.756Z,100624.31
2023-05-08T19:27:48.680Z,100629.41
2023-05-08T19:32:50.515Z,100625.16
2023-05-08T19:37:52.082Z,100630.03
2023-05-08T19:42:53.674Z,100628.22
2023-05-08T19:47:55.361Z,100629.03
2023-05-08T19:52:57.043Z,100637.34
2023-05-08T19:57:59.763Z,100632.97
2023-05-08T20:03:01.750Z,100621.94
2023-05-08T20:08:03.518Z,100633.63
2023-05-08T20:13:05.611Z,100625.06
2023-05-08T20:18:07.450Z,100628.25
2023-05-08T20:23:09.266Z,100631.56
2023-05-08T20:28:10.863Z,100644.88
2023-05-08T20:33:12.467Z,100636.19
2023-05-08T20:38:16.155Z,100641.13
2023-05-08T20:43:17.841Z,100640.88
2023-05-08T20:48:19.734Z,100637.94
2023-05-08T20:53:21.318Z,100646.22
2023-05-08T20:58:23.093Z,100642.91
2023-05-08T21:03:24.874Z,100652.13
2023-05-08T21:08:26.573Z,100641.91
2023-05-08T21:13:28.419Z,100654.41
2023-05-08T21:18:30.275Z,100647.91
2023-05-08T21:23:31.969Z,100658.00
2023-05-08T21:28:34.223Z,100664.63
2023-05-08T21:33:35.954Z,100667.88
2023-05-08T21:38:37.560Z,100677.84
2023-05-08T21:43:39.398Z,100674.22
2023-05-08T21:48:40.987Z,100672.44
2023-05-08T21:53:42.615Z,100672.19
2023-05-08T21:58:44.253Z,100673.72
2023-05-08T22:03:45.894Z,100663.41
2023-05-08T22:08:47.963Z,100667.47
2023-05-08T22:13:49.552Z,100672.38
2023-05-08T22:18:51.124Z,100679.69
2023-05-08T22:23:52.746Z,100676.22
2023-05-08T22:28:55.282Z,100667.66
2023-05-08T22:33:58.341Z,100663.31
2023-05-08T22:39:01.120Z,100675.59
2023-05-08T22:44:03.046Z,100678.78
2023-05-08T22:49:04.681Z,100684.53
2023-05-08T22:54:06.560Z,100685.19
2023-05-08T22:59:08.208Z,100687.53
2023-05-08T23:04:09.888Z,100687.44
2023-05-08T23:09:11.476Z,100688.06
2023-05-08T23:14:13.186Z,100681.13
2023-05-08T23:19:15.687Z,100678.34
2023-05-08T23:24:18.293Z,100680.78
2023-05-08T23:29:20.938Z,100674.78
2023-05-08T23:34:22.511Z,100669.44
2023-05-08T23:39:24.519Z,100667.44
2023-05-08T23:44:26.100Z,100665.59
2023-05-08T23:49:29.072Z,100663.72
2023-05-08T23:54:30.650Z,100661.91
2023-05-08T23:59:32.240Z,100655.78
